Time;durP1;ratioP1;P1;durP2;ratioP2;P2;SDS_P1;SDS_P2;PMS_P1;PMS_P2;Temp;Humidity;BMP_temperature;BMP_pressure;BME280_temperature;BME280_humidity;BME280_pressure;Samples;Min_cycle;Max_cycle;Signal;HPM_P1;HPM_P2
2022/11/12 00:01:56;;;;;;;27.27;14.90;;;;;;;8.96;100.00;102717.66;7387732;19;20415;-53
2022/11/12 00:04:26;;;;;;;28.47;14.70;;;;;;;8.92;100.00;102707.88;7389647;19;20408;-53
2022/11/12 00:06:55;;;;;;;31.77;15.97;;;;;;;8.90;100.00;102710.38;7390219;19;20402;-52
2022/11/12 00:09:27;;;;;;;32.90;16.07;;;;;;;8.90;100.00;102706.88;7390009;19;21131;-54
2022/11/12 00:11:57;;;;;;;31.73;14.97;;;;;;;8.86;100.00;102702.25;7389346;19;20767;-55
2022/11/12 00:14:26;;;;;;;27.53;14.50;;;;;;;8.82;100.00;102693.38;7392903;19;20427;-54
2022/11/12 00:16:56;;;;;;;32.67;15.20;;;;;;;8.83;100.00;102691.72;7390758;19;20392;-51
2022/11/12 00:19:25;;;;;;;31.23;15.63;;;;;;;8.80;100.00;102704.31;7390888;19;20950;-57
2022/11/12 00:21:55;;;;;;;31.07;15.50;;;;;;;8.81;100.00;102699.31;7388743;19;20424;-53
2022/11/12 00:24:24;;;;;;;29.70;14.80;;;;;;;8.76;100.00;102698.94;7389801;19;20411;-56
2022/11/12 00:26:57;;;;;;;31.47;16.30;;;;;;;8.77;100.00;102690.44;7389757;19;20418;-55
2022/11/12 00:29:26;;;;;;;37.80;16.70;;;;;;;8.71;100.00;102689.97;7384615;19;20422;-54
2022/11/12 00:31:56;;;;;;;30.17;15.53;;;;;;;8.70;100.00;102688.16;7384768;19;20817;-53
2022/11/12 00:34:25;;;;;;;32.23;15.33;;;;;;;8.68;100.00;102692.28;7387084;19;20388;-55
2022/11/12 00:36:54;;;;;;;30.37;15.10;;;;;;;8.70;100.00;102683.03;7386550;19;20396;-56
2022/11/12 00:39:24;;;;;;;28.87;15.37;;;;;;;8.71;100.00;102689.06;7385732;19;20380;-55
2022/11/12 00:41:56;;;;;;;29.57;16.63;;;;;;;8.74;100.00;102682.50;7384638;19;20432;-57
2022/11/12 00:44:26;;;;;;;34.30;16.13;;;;;;;8.70;100.00;102680.44;7387519;19;20941;-54
2022/11/12 00:46:55;;;;;;;33.73;15.30;;;;;;;8.69;100.00;102683.78;7386836;19;20396;-55
2022/11/12 00:49:25;;;;;;;30.27;16.27;;;;;;;8.73;100.00;102683.25;7385997;19;20403;-50
2022/11/12 00:51:54;;;;;;;34.57;16.43;;;;;;;8.73;100.00;102683.25;7385195;19;20440;-50
2022/11/12 00:54:24;;;;;;;31.67;14.87;;;;;;;8.74;100.00;102679.00;7387844;19;20415;-50
2022/11/12 00:56:56;;;;;;;34.50;16.07;;;;;;;8.74;100.00;102686.72;7387337;19;20418;-51
2022/11/12 00:59:25;;;;;;;29.03;16.57;;;;;;;8.75;100.00;102692.00;7387048;19;20387;-55
2022/11/12 01:01:55;;;;;;;32.37;15.93;;;;;;;8.77;100.00;102690.44;7385424;19;20792;-52
2022/11/12 01:04:24;;;;;;;30.27;14.80;;;;;;;8.76;100.00;102693.81;7387836;19;20396;-51
2022/11/12 01:06:54;;;;;;;30.27;14.70;;;;;;;8.75;100.00;102704.88;7387176;19;20375;-51
2022/11/12 01:09:23;;;;;;;30.33;14.60;;;;;;;8.81;100.00;102707.03;7386498;19;20459;-53
2022/11/12 01:11:55;;;;;;;33.40;14.90;;;;;;;8.83;100.00;102704.59;7385607;19;20427;-53
2022/11/12 01:14:24;;;;;;;25.73;13.60;;;;;;;8.80;100.00;102712.97;7387400;19;20939;-52
2022/11/12 01:16:54;;;;;;;26.57;14.53;;;;;;;8.80;100.00;102714.63;7386790;19;20392;-52
2022/11/12 01:19:23;;;;;;;25.37;13.00;;;;;;;8.76;100.00;102714.41;7386437;19;20388;-52
2022/11/12 01:21:53;;;;;;;31.27;14.00;;;;;;;8.83;100.00;102710.66;7385254;19;20455;-55
2022/11/12 01:24:22;;;;;;;28.10;14.60;;;;;;;8.89;100.00;102728.25;7387117;19;20407;-55
2022/11/12 01:26:51;;;;;;;20.60;12.87;;;;;;;8.85;100.00;102728.78;7387417;19;20423;-53
2022/11/12 01:29:24;;;;;;;22.97;12.13;;;;;;;8.83;100.00;102735.47;7386208;19;20426;-55
2022/11/12 01:31:53;;;;;;;23.93;12.63;;;;;;;8.81;100.00;102735.34;7385548;19;20427;-54
2022/11/12 01:34:22;;;;;;;22.43;13.23;;;;;;;8.86;100.00;102738.28;7386324;19;20417;-50
2022/11/12 01:36:52;;;;;;;25.87;13.03;;;;;;;8.86;100.00;102746.00;7387005;19;20392;-53
2022/11/12 01:39:21;;;;;;;21.97;12.40;;;;;;;8.86;100.00;102740.84;7387106;19;20387;-54
2022/11/12 01:41:51;;;;;;;25.23;12.70;;;;;;;8.82;100.00;102741.41;7384178;19;20427;-57
2022/11/12 01:44:25;;;;;;;29.50;14.20;;;;;;;8.82;100.00;102750.00;7386027;19;20392;-57
2022/11/12 01:47:00;;;;;;;25.60;13.03;;;;;;;8.78;100.00;102738.56;7387723;19;20386;-55
2022/11/12 01:49:33;;;;;;;22.37;12.47;;;;;;;8.81;100.00;102747.34;7385379;19;20387;-54
2022/11/12 01:52:12;;;;;;;20.57;10.40;;;;;;;8.75;100.00;102751.22;7384850;19;20423;-50
2022/11/12 01:54:42;;;;;;;23.07;12.07;;;;;;;8.77;100.00;102751.34;7386240;19;20391;-55
2022/11/12 01:57:12;;;;;;;21.63;11.57;;;;;;;8.74;100.00;102762.28;7386937;19;20442;-55
2022/11/12 01:59:46;;;;;;;22.40;11.77;;;;;;;8.74;100.00;102757.13;7385116;19;20383;-54
2022/11/12 02:02:16;;;;;;;29.13;12.87;;;;;;;8.78;100.00;102766.88;7384071;19;20786;-54
2022/11/12 02:04:46;;;;;;;22.00;11.53;;;;;;;8.83;100.00;102771.50;7385539;19;20396;-53
2022/11/12 02:07:15;;;;;;;21.17;11.60;;;;;;;8.85;100.00;102762.22;7386835;19;21043;-57
2022/11/12 02:09:45;;;;;;;25.27;13.20;;;;;;;8.82;100.00;102765.47;7385744;19;20412;-57
2022/11/12 02:13:56;;;;;;;24.80;10.77;;;;;;;8.80;100.00;102761.88;7384892;19;20423;-52
2022/11/12 02:15:06;;;;;;;22.57;11.87;;;;;;;8.81;100.00;102757.63;7386553;19;20395;-56
2022/11/12 02:17:35;;;;;;;25.13;12.77;;;;;;;8.78;100.00;102756.59;7387259;19;20412;-50
2022/11/12 02:20:05;;;;;;;22.40;11.77;;;;;;;8.69;100.00;102753.28;7385219;19;20909;-57
2022/11/12 02:22:37;;;;;;;20.37;11.73;;;;;;;8.70;100.00;102760.22;7384789;19;20410;-53
2022/11/12 02:25:08;;;;;;;24.60;12.43;;;;;;;8.62;100.00;102751.00;7386869;19;20380;-52
2022/11/12 02:27:38;;;;;;;20.30;11.10;;;;;;;8.56;100.00;102751.38;7386514;19;20391;-55
2022/11/12 02:30:08;;;;;;;19.70;11.20;;;;;;;8.49;100.00;102754.19;7386488;19;20387;-51
2022/11/12 02:32:38;;;;;;;23.40;11.40;;;;;;;8.45;100.00;102753.03;7385357;19;20928;-56
2022/11/12 02:35:09;;;;;;;22.77;11.60;;;;;;;8.44;100.00;102761.53;7392145;19;20410;-50
2022/11/12 02:37:41;;;;;;;25.20;12.03;;;;;;;8.38;100.00;102750.72;7390228;19;20403;-50
2022/11/12 02:40:11;;;;;;;24.57;12.17;;;;;;;8.47;100.00;102753.16;7389247;19;20724;-56
2022/11/12 02:42:40;;;;;;;26.53;13.43;;;;;;;8.53;100.00;102760.50;7388610;19;20380;-55
2022/11/12 02:45:11;;;;;;;23.47;11.97;;;;;;;8.37;100.00;102756.66;7390102;19;20940;-50
2022/11/12 02:47:40;;;;;;;23.10;11.13;;;;;;;8.23;100.00;102756.41;7390217;19;20384;-52
2022/11/12 02:50:11;;;;;;;21.90;11.77;;;;;;;8.16;100.00;102763.47;7389201;19;20387;-50
2022/11/12 02:52:43;;;;;;;22.23;12.67;;;;;;;8.00;100.00;102756.16;7393821;19;20747;-53
2022/11/12 02:55:13;;;;;;;27.43;12.97;;;;;;;8.11;100.00;102752.81;7397255;19;20771;-54
2022/11/12 02:57:43;;;;;;;25.97;13.47;;;;;;;8.22;100.00;102758.84;7397031;19;20384;-57
2022/11/12 03:00:14;;;;;;;18.20;11.80;;;;;;;8.08;100.00;102757.69;7395746;19;20928;-58
2022/11/12 03:02:57;;;;;;;22.90;12.47;;;;;;;7.96;100.00;102745.59;7394264;19;20929;-52
2022/11/12 03:05:28;;;;;;;21.77;13.27;;;;;;;7.94;100.00;102751.38;7396918;19;20399;-53
2022/11/12 03:08:01;;;;;;;25.07;13.83;;;;;;;8.14;100.00;102745.34;7396935;19;20406;-55
2022/11/12 03:10:31;;;;;;;23.90;13.10;;;;;;;8.30;100.00;102754.34;7395298;19;20416;-58
2022/11/12 03:13:02;;;;;;;25.13;13.30;;;;;;;8.06;100.00;102743.81;7396701;19;20380;-51
2022/11/12 03:15:32;;;;;;;23.90;13.17;;;;;;;7.84;100.00;102744.56;7396239;19;20384;-51
2022/11/12 03:18:01;;;;;;;25.23;12.97;;;;;;;7.79;100.00;102767.31;7396354;19;20414;-56
2022/11/12 03:20:33;;;;;;;22.17;12.57;;;;;;;7.84;100.00;102775.41;7394765;19;20466;-54
2022/11/12 03:23:07;;;;;;;25.63;12.83;;;;;;;7.68;100.00;102771.53;7393984;19;20886;-58
2022/11/12 03:25:37;;;;;;;27.90;13.47;;;;;;;7.50;100.00;102762.22;7396055;19;20402;-52
2022/11/12 03:28:09;;;;;;;24.50;12.90;;;;;;;7.42;100.00;102752.19;7396268;19;20414;-51
2022/11/12 03:30:40;;;;;;;23.33;12.70;;;;;;;7.36;100.00;102753.31;7394340;19;20418;-57
2022/11/12 03:33:12;;;;;;;25.17;14.07;;;;;;;7.36;100.00;102761.03;7396092;19;20743;-51
2022/11/12 03:35:41;;;;;;;20.67;12.53;;;;;;;7.28;100.00;102756.13;7395659;19;20387;-54
2022/11/12 03:38:14;;;;;;;23.70;13.40;;;;;;;7.19;100.00;102744.16;7395613;19;20792;-51
2022/11/12 03:40:43;;;;;;;23.53;13.80;;;;;;;7.15;100.00;102754.16;7394592;19;20415;-52
2022/11/12 03:43:12;;;;;;;27.70;14.50;;;;;;;7.11;100.00;102744.38;7393626;19;20429;-55
2022/11/12 03:45:42;;;;;;;22.17;13.47;;;;;;;7.02;100.00;102744.47;7395161;19;20411;-52
2022/11/12 03:48:11;;;;;;;23.47;13.10;;;;;;;6.99;100.00;102745.88;7395434;19;20399;-49
2022/11/12 03:50:41;;;;;;;27.67;14.20;;;;;;;6.91;100.00;102747.75;7394063;19;20790;-53
2022/11/12 03:53:10;;;;;;;25.93;14.57;;;;;;;6.86;100.00;102752.50;7395293;19;20417;-52
2022/11/12 03:55:42;;;;;;;29.83;13.67;;;;;;;6.83;100.00;102752.19;7394981;19;20394;-51
2022/11/12 03:58:11;;;;;;;22.07;14.23;;;;;;;6.79;100.00;102757.84;7395177;19;20410;-55
2022/11/12 04:00:41;;;;;;;21.90;13.27;;;;;;;6.74;100.00;102747.19;7394025;19;20444;-58
2022/11/12 04:03:10;;;;;;;25.37;13.87;;;;;;;6.66;100.00;102734.44;7392028;19;20953;-51
2022/11/12 04:08:38;;;;;;;27.70;13.80;;;;;;;6.66;100.00;102748.13;7394281;19;20395;-52
2022/11/12 04:11:13;;;;;;;26.50;15.03;;;;;;;6.58;100.00;102739.78;7393575;19;20449;-53
2022/11/12 04:13:46;;;;;;;22.93;13.87;;;;;;;6.50;100.00;102738.16;7394558;19;20758;-50
2022/11/12 04:21:53;;;;;;;29.33;14.93;;;;;;;6.41;100.00;102739.91;7392397;19;20427;-51
2022/11/12 04:27:11;;;;;;;27.10;14.83;;;;;;;6.44;100.00;102737.59;7394262;19;20389;-53
2022/11/12 04:32:24;;;;;;;26.33;14.20;;;;;;;6.20;100.00;102726.91;7394396;19;20390;-51
2022/11/12 04:34:53;;;;;;;27.40;15.87;;;;;;;6.24;100.00;102733.25;7393907;19;20385;-53
2022/11/12 04:37:24;;;;;;;25.90;15.37;;;;;;;6.28;100.00;102728.53;7393695;19;20737;-55
2022/11/12 04:39:53;;;;;;;26.10;15.47;;;;;;;6.24;100.00;102733.25;7392956;19;20414;-52
2022/11/12 04:45:09;;;;;;;30.27;15.63;;;;;;;6.29;100.00;102727.78;7393265;19;20414;-53
2022/11/12 04:47:42;;;;;;;27.83;15.50;;;;;;;6.16;100.00;102735.13;7393193;19;20748;-57
2022/11/12 04:50:15;;;;;;;25.20;14.30;;;;;;;6.10;100.00;102727.75;7392661;19;20423;-51
2022/11/12 04:52:45;;;;;;;28.03;14.90;;;;;;;6.12;100.00;102738.16;7393247;19;21220;-57
2022/11/12 04:55:14;;;;;;;32.73;17.13;;;;;;;6.27;100.00;102754.03;7393339;19;20960;-58
2022/11/12 04:57:46;;;;;;;28.40;16.53;;;;;;;6.12;100.00;102756.09;7393249;19;20402;-55
2022/11/12 05:00:16;;;;;;;28.13;15.40;;;;;;;6.00;100.00;102746.47;7392203;19;20928;-55
2022/11/12 05:02:45;;;;;;;25.30;15.23;;;;;;;6.06;100.00;102741.94;7392169;19;20405;-53
2022/11/12 05:05:15;;;;;;;24.97;15.87;;;;;;;6.18;100.00;102741.28;7393018;19;20430;-55
2022/11/12 05:07:44;;;;;;;29.27;17.10;;;;;;;6.27;100.00;102746.34;7393039;19;20397;-49
2022/11/12 05:10:14;;;;;;;25.30;15.30;;;;;;;6.04;100.00;102732.31;7392243;19;20416;-51
2022/11/12 05:12:46;;;;;;;34.37;16.70;;;;;;;5.90;100.00;102742.16;7392887;19;20436;-53
2022/11/12 05:15:15;;;;;;;27.00;16.07;;;;;;;6.09;100.00;102738.75;7393212;19;20394;-54
2022/11/12 05:17:45;;;;;;;26.43;16.47;;;;;;;6.08;100.00;102748.13;7392388;19;20395;-50
2022/11/12 05:20:15;;;;;;;33.90;16.13;;;;;;;6.08;100.00;102750.69;7391508;19;20395;-51
2022/11/12 05:22:45;;;;;;;25.80;15.00;;;;;;;5.98;100.00;102748.00;7391808;19;20408;-52
2022/11/12 05:25:34;;;;;;;28.07;15.70;;;;;;;5.96;100.00;102754.66;7392716;19;20398;-54
2022/11/12 05:28:06;;;;;;;30.17;16.87;;;;;;;5.95;100.00;102760.53;7392467;19;20387;-49
2022/11/12 05:30:36;;;;;;;25.00;16.00;;;;;;;5.93;100.00;102751.78;7390444;19;21272;-55
2022/11/12 05:33:06;;;;;;;25.53;14.53;;;;;;;5.83;100.00;102741.47;7392063;19;20415;-56
2022/11/12 05:35:35;;;;;;;32.03;16.67;;;;;;;5.98;100.00;102745.44;7392038;19;20397;-52
2022/11/12 05:38:05;;;;;;;31.00;17.33;;;;;;;6.08;100.00;102752.34;7392123;19;20764;-50
2022/11/12 05:40:34;;;;;;;28.30;16.40;;;;;;;5.96;100.00;102752.09;7391025;19;20418;-55
2022/11/12 05:43:06;;;;;;;36.30;19.03;;;;;;;5.90;100.00;102754.09;7390960;19;20947;-56
2022/11/12 05:45:36;;;;;;;46.17;22.30;;;;;;;5.95;100.00;102747.72;7391929;19;20383;-57
2022/11/12 05:48:05;;;;;;;27.23;16.87;;;;;;;5.80;100.00;102735.28;7391761;19;20902;-54
2022/11/12 05:50:34;;;;;;;40.70;22.50;;;;;;;5.88;100.00;102737.66;7390505;19;20760;-52
2022/11/12 05:53:24;;;;;;;31.57;16.50;;;;;;;5.99;100.00;102762.59;7392120;19;20390;-55
2022/11/12 05:55:53;;;;;;;26.97;16.00;;;;;;;5.76;100.00;102756.28;7391394;19;20399;-57
2022/11/12 05:58:25;;;;;;;26.07;15.00;;;;;;;5.53;100.00;102744.75;7390671;19;20413;-53
2022/11/12 06:00:56;;;;;;;26.37;15.23;;;;;;;5.57;100.00;102752.72;7390635;19;20869;-51
2022/11/12 06:03:25;;;;;;;26.37;14.63;;;;;;;5.69;100.00;102761.53;7390412;19;20405;-54
2022/11/12 06:05:55;;;;;;;28.00;15.30;;;;;;;5.65;100.00;102749.22;7391368;19;20395;-54
2022/11/12 06:08:24;;;;;;;29.77;16.77;;;;;;;5.68;100.00;102754.63;7388017;19;20391;-54
2022/11/12 06:10:55;;;;;;;27.60;14.40;;;;;;;6.22;100.00;102756.19;7391189;19;20489;-50
2022/11/12 06:13:27;;;;;;;33.73;18.47;;;;;;;6.87;100.00;102746.59;7390965;19;20413;-51
2022/11/12 06:15:57;;;;;;;26.90;17.00;;;;;;;6.12;100.00;102753.53;7390431;19;20382;-52
2022/11/12 06:18:27;;;;;;;63.17;29.50;;;;;;;6.24;100.00;102758.91;7390535;19;20379;-53
2022/11/12 06:23:45;;;;;;;29.93;16.80;;;;;;;6.37;100.00;102778.84;7389666;19;20388;-52
2022/11/12 06:26:14;;;;;;;28.30;13.50;;;;;;;5.68;100.00;102775.13;7391324;19;20414;-50
2022/11/12 06:28:46;;;;;;;26.53;15.60;;;;;;;5.56;100.00;102776.53;7397080;19;20433;-56
2022/11/12 06:31:16;;;;;;;28.70;15.00;;;;;;;5.51;100.00;102786.34;7396521;19;20473;-54
2022/11/12 06:33:46;;;;;;;30.53;13.50;;;;;;;5.36;100.00;102771.31;7398175;19;20428;-50
2022/11/12 06:36:17;;;;;;;28.17;15.23;;;;;;;5.63;100.00;102771.22;7398121;19;20378;-49
2022/11/12 06:38:47;;;;;;;29.80;16.23;;;;;;;6.10;100.00;102765.31;7397333;19;20387;-53
2022/11/12 06:41:17;;;;;;;32.80;15.90;;;;;;;6.25;100.00;102766.69;7396357;19;20892;-58
2022/11/12 06:43:49;;;;;;;27.03;15.50;;;;;;;5.85;100.00;102796.31;7396682;19;20913;-60
2022/11/12 06:46:19;;;;;;;27.00;13.80;;;;;;;5.59;100.00;102795.63;7397584;19;20394;-53
2022/11/12 06:48:48;;;;;;;21.70;14.13;;;;;;;5.53;100.00;102788.28;7396976;19;20383;-51
2022/11/12 06:51:19;;;;;;;22.20;13.90;;;;;;;5.27;100.00;102796.03;7395993;19;20777;-54
2022/11/12 06:53:50;;;;;;;23.13;13.87;;;;;;;5.17;100.00;102791.69;7397430;19;20398;-56
2022/11/12 06:56:20;;;;;;;33.63;16.43;;;;;;;5.79;100.00;102789.84;7397700;19;20948;-52
2022/11/12 06:58:52;;;;;;;30.80;16.03;;;;;;;5.95;100.00;102801.53;7396980;19;20426;-50
2022/11/12 07:01:22;;;;;;;34.60;14.50;;;;;;;5.68;100.00;102798.16;7395872;19;20417;-51
2022/11/12 07:03:53;;;;;;;31.87;14.90;;;;;;;5.54;100.00;102807.13;7396460;19;20416;-54
2022/11/12 07:06:23;;;;;;;22.57;13.23;;;;;;;5.57;100.00;102806.50;7396897;19;20393;-56
2022/11/12 07:08:53;;;;;;;26.20;14.30;;;;;;;5.47;100.00;102808.19;7396374;19;20405;-53
2022/11/12 07:11:23;;;;;;;24.23;14.00;;;;;;;5.32;100.00;102811.84;7395440;19;20426;-52
2022/11/12 07:13:55;;;;;;;25.80;14.00;;;;;;;5.47;100.00;102810.75;7397009;19;20445;-51
2022/11/12 07:16:24;;;;;;;31.63;14.27;;;;;;;5.30;100.00;102810.78;7396814;19;20410;-51
2022/11/12 07:18:54;;;;;;;23.80;13.50;;;;;;;5.26;100.00;102810.50;7396044;19;20420;-52
2022/11/12 07:21:23;;;;;;;25.17;13.63;;;;;;;5.09;100.00;102810.53;7395054;19;20424;-52
2022/11/12 07:23:53;;;;;;;24.77;14.20;;;;;;;5.19;100.00;102823.47;7395454;19;20934;-54
2022/11/12 07:26:23;;;;;;;26.20;14.40;;;;;;;5.19;100.00;102831.16;7396775;19;20416;-55
2022/11/12 07:28:57;;;;;;;26.40;14.70;;;;;;;5.16;100.00;102828.28;7395440;19;20403;-51
2022/11/12 07:31:27;;;;;;;30.70;14.13;;;;;;;5.07;100.00;102832.50;7394619;19;20426;-53
2022/11/12 07:33:56;;;;;;;24.97;15.10;;;;;;;5.04;100.00;102829.63;7396513;19;20420;-50
2022/11/12 07:36:26;;;;;;;27.17;15.60;;;;;;;4.92;100.00;102825.13;7395589;19;20429;-52
2022/11/12 07:38:55;;;;;;;32.70;15.23;;;;;;;4.98;100.00;102823.16;7393066;19;20404;-57
2022/11/12 07:41:26;;;;;;;31.30;14.90;;;;;;;5.37;100.00;102828.53;7393891;19;20415;-55
2022/11/12 07:43:58;;;;;;;23.13;14.67;;;;;;;5.57;100.00;102822.78;7395225;19;20376;-58
2022/11/12 07:46:29;;;;;;;30.03;16.37;;;;;;;5.37;100.00;102818.28;7397766;19;20402;-56
2022/11/12 07:48:58;;;;;;;24.87;15.33;;;;;;;5.11;100.00;102803.88;7394847;19;20409;-50
2022/11/12 07:51:29;;;;;;;33.03;14.70;;;;;;;5.13;100.00;102794.72;7393780;19;20429;-53
2022/11/12 07:54:00;;;;;;;38.47;19.80;;;;;;;5.51;100.00;102814.50;7395486;19;20411;-51
2022/11/12 07:56:30;;;;;;;27.77;14.90;;;;;;;5.37;100.00;102808.97;7395019;19;20406;-54
2022/11/12 07:59:02;;;;;;;23.10;15.00;;;;;;;5.24;100.00;102798.31;7394768;19;20388;-49
2022/11/12 08:01:34;;;;;;;29.00;16.27;;;;;;;5.35;100.00;102799.34;7393680;19;20416;-52
2022/11/12 08:04:05;;;;;;;125.23;57.10;;;;;;;6.01;100.00;102802.09;7394783;19;20459;-52
2022/11/12 08:06:35;;;;;;;29.83;18.17;;;;;;;6.94;100.00;102813.84;7397197;19;20415;-53
2022/11/12 08:09:06;;;;;;;63.87;29.90;;;;;;;6.71;100.00;102815.25;7394157;19;20393;-51
2022/11/12 08:11:36;;;;;;;78.50;35.60;;;;;;;7.39;100.00;102823.84;7394245;19;20432;-55
2022/11/12 08:14:08;;;;;;;61.83;30.73;;;;;;;7.23;100.00;102826.72;7394815;19;20408;-53
2022/11/12 08:16:38;;;;;;;25.53;15.63;;;;;;;6.43;100.00;102840.94;7394694;19;20430;-54
2022/11/12 08:19:07;;;;;;;27.07;14.77;;;;;;;6.18;100.00;102838.69;7393913;19;20501;-53
2022/11/12 08:21:37;;;;;;;30.03;15.70;;;;;;;6.36;100.00;102854.84;7392786;19;20442;-50
2022/11/12 08:24:07;;;;;;;37.93;18.70;;;;;;;6.42;100.00;102867.34;7394198;19;20384;-53
2022/11/12 08:26:36;;;;;;;28.03;16.20;;;;;;;6.37;100.00;102864.38;7394022;19;20964;-56
2022/11/12 08:29:08;;;;;;;25.50;15.00;;;;;;;6.40;100.00;102863.75;7393251;19;20422;-50
2022/11/12 08:31:38;;;;;;;31.63;17.03;;;;;;;6.42;100.00;102872.50;7392853;19;20422;-53
2022/11/12 08:34:13;;;;;;;28.00;16.10;;;;;;;6.42;100.00;102878.50;7394129;19;20406;-49
2022/11/12 08:36:50;;;;;;;31.47;16.23;;;;;;;6.47;100.00;102873.81;7394053;19;20388;-49
2022/11/12 08:39:20;;;;;;;25.87;15.07;;;;;;;6.51;100.00;102875.00;7392988;19;20917;-54
2022/11/12 08:41:49;;;;;;;23.90;15.20;;;;;;;6.56;100.00;102882.34;7392599;19;20822;-49
2022/11/12 08:44:21;;;;;;;31.97;16.30;;;;;;;6.64;100.00;102897.53;7393256;19;20732;-53
2022/11/12 08:46:52;;;;;;;26.67;14.93;;;;;;;6.74;100.00;102895.06;7397213;19;20406;-52
2022/11/12 08:49:21;;;;;;;31.70;16.10;;;;;;;6.81;100.00;102892.31;7392652;19;20384;-50
2022/11/12 08:51:51;;;;;;;26.83;15.57;;;;;;;6.86;100.00;102901.31;7391413;19;20423;-53
2022/11/12 08:54:20;;;;;;;30.63;16.87;;;;;;;6.93;100.00;102915.63;7393283;19;20411;-49
2022/11/12 08:56:50;;;;;;;27.97;16.13;;;;;;;6.99;100.00;102916.16;7392978;19;20387;-49
2022/11/12 08:59:23;;;;;;;37.17;16.43;;;;;;;7.11;100.00;102918.03;7392713;19;20380;-55
2022/11/12 09:01:52;;;;;;;28.07;16.70;;;;;;;7.16;100.00;102919.38;7393406;19;20454;-52
2022/11/12 09:04:21;;;;;;;28.73;15.53;;;;;;;7.20;100.00;102929.16;7393953;19;20395;-49
2022/11/12 09:06:51;;;;;;;24.50;15.00;;;;;;;7.23;100.00;102928.53;7392857;19;20399;-51
2022/11/12 09:09:22;;;;;;;29.20;16.60;;;;;;;7.31;100.00;102942.97;7385889;19;20396;-48
2022/11/12 09:11:52;;;;;;;31.20;17.07;;;;;;;7.47;100.00;102946.91;7391116;19;20411;-48
2022/11/12 09:14:24;;;;;;;29.63;16.00;;;;;;;7.52;100.00;102946.56;7391346;19;20404;-48
2022/11/12 09:16:53;;;;;;;26.70;16.03;;;;;;;7.56;100.00;102948.66;7388291;19;20440;-53
2022/11/12 09:19:23;;;;;;;26.03;15.60;;;;;;;7.77;100.00;102950.41;7388358;19;20410;-52
2022/11/12 09:21:52;;;;;;;33.23;16.20;;;;;;;7.88;100.00;102953.91;7386552;19;20416;-55
2022/11/12 09:24:22;;;;;;;26.30;14.60;;;;;;;7.84;100.00;102965.59;7387528;19;21138;-55
2022/11/12 09:26:54;;;;;;;27.50;15.50;;;;;;;7.77;100.00;102970.94;7388247;19;20758;-50
2022/11/12 09:29:26;;;;;;;27.37;15.13;;;;;;;7.82;100.00;102964.56;7386974;19;20774;-54
2022/11/12 09:31:55;;;;;;;27.30;15.03;;;;;;;7.91;100.00;102957.69;7387645;19;21283;-52
2022/11/12 09:34:25;;;;;;;26.43;15.47;;;;;;;8.03;100.00;102956.91;7388595;19;20384;-53
2022/11/12 09:36:54;;;;;;;24.73;15.27;;;;;;;8.17;100.00;102964.19;7386691;19;20418;-49
2022/11/12 09:39:24;;;;;;;27.70;14.50;;;;;;;8.23;100.00;102972.44;7387868;19;20418;-52
2022/11/12 09:41:53;;;;;;;26.93;14.87;;;;;;;8.29;100.00;102972.06;7387057;19;20802;-49
2022/11/12 09:44:33;;;;;;;25.27;15.30;;;;;;;8.32;100.00;102974.00;7389688;19;20450;-55
2022/11/12 09:47:11;;;;;;;26.53;14.77;;;;;;;8.49;100.00;102971.22;7392497;19;20410;-51
2022/11/12 09:49:46;;;;;;;26.87;15.23;;;;;;;8.51;100.00;102976.47;7388265;19;20383;-48
2022/11/12 09:52:18;;;;;;;28.07;15.50;;;;;;;8.65;100.00;102977.69;7383988;19;20438;-49
2022/11/12 09:54:52;;;;;;;29.80;15.30;;;;;;;8.65;100.00;102977.69;7387454;19;20388;-51
2022/11/12 09:57:22;;;;;;;24.03;14.20;;;;;;;8.78;100.00;102975.38;7388421;19;20406;-48
2022/11/12 09:59:54;;;;;;;28.47;14.90;;;;;;;8.87;100.00;102979.53;7387507;19;20395;-51
2022/11/12 10:02:29;;;;;;;24.83;14.33;;;;;;;8.97;100.00;102981.19;7384306;19;20436;-50
2022/11/12 10:05:18;;;;;;;25.00;14.50;;;;;;;9.02;100.00;102980.78;7387940;19;20403;-54
2022/11/12 10:08:04;;;;;;;24.13;14.47;;;;;;;9.15;100.00;102994.69;7387087;19;20407;-51
2022/11/12 10:10:40;;;;;;;29.53;14.07;;;;;;;9.21;100.00;102990.06;7386010;19;20423;-50
2022/11/12 10:13:21;;;;;;;31.10;16.67;;;;;;;9.32;100.00;102994.44;7388037;19;20379;-51
2022/11/12 10:19:07;;;;;;;23.47;14.37;;;;;;;9.36;100.00;102992.09;7387362;19;20383;-52
2022/11/12 10:21:40;;;;;;;22.20;14.17;;;;;;;9.41;100.00;102996.88;7386201;19;20427;-49
2022/11/12 10:24:12;;;;;;;22.63;14.10;;;;;;;9.62;100.00;103007.13;7386963;19;21360;-53
2022/11/12 10:26:42;;;;;;;25.60;14.30;;;;;;;9.77;100.00;103007.47;7385625;19;20431;-53
2022/11/12 10:29:16;;;;;;;28.00;14.33;;;;;;;9.81;100.00;102999.22;7386507;19;20415;-52
2022/11/12 10:31:48;;;;;;;29.60;14.93;;;;;;;9.70;100.00;103006.06;7386093;19;20423;-49
2022/11/12 10:34:18;;;;;;;20.47;12.53;;;;;;;9.78;100.00;103014.44;7387123;19;20395;-51
2022/11/12 10:36:51;;;;;;;25.80;14.00;;;;;;;9.92;100.00;103023.28;7387448;19;20413;-52
2022/11/12 10:39:34;;;;;;;21.87;13.47;;;;;;;10.03;100.00;103037.03;7386597;19;20467;-51
2022/11/12 10:42:07;;;;;;;26.23;14.07;;;;;;;10.00;100.00;103021.31;7385741;19;20426;-48
2022/11/12 10:44:36;;;;;;;23.10;13.37;;;;;;;10.00;100.00;103019.63;7387753;19;20392;-49
2022/11/12 10:47:35;;;;;;;28.40;14.03;;;;;;;10.06;100.00;103026.06;7389947;19;20418;-51
2022/11/12 10:50:23;;;;;;;23.53;13.37;;;;;;;10.30;100.00;103027.13;7386942;19;20413;-49
2022/11/12 10:53:01;;;;;;;24.83;13.50;;;;;;;10.34;100.00;103033.41;7387840;19;20404;-52
2022/11/12 10:55:33;;;;;;;20.23;12.43;;;;;;;10.33;100.00;103027.38;7387174;19;20417;-54
2022/11/12 10:58:18;;;;;;;23.87;13.23;;;;;;;10.44;100.00;103015.34;7387835;19;20413;-53
2022/11/12 11:00:57;;;;;;;23.77;12.77;;;;;;;10.36;100.00;103019.88;7386039;19;20439;-53
2022/11/12 11:03:31;;;;;;;22.57;12.97;;;;;;;10.34;100.00;103021.44;7386679;19;20422;-52
2022/11/12 11:06:02;;;;;;;23.53;12.30;;;;;;;10.54;100.00;103006.63;7385754;19;21045;-48
2022/11/12 11:08:37;;;;;;;23.20;13.57;;;;;;;10.54;100.00;103004.06;7385651;19;20391;-52
2022/11/12 11:11:18;;;;;;;37.17;14.10;;;;;;;10.73;100.00;102992.56;7386234;19;20410;-54
2022/11/12 11:13:49;;;;;;;20.80;11.67;;;;;;;10.94;100.00;103001.94;7391014;19;20388;-50
2022/11/12 11:16:25;;;;;;;27.53;13.20;;;;;;;10.89;100.00;102999.81;7394066;19;20418;-49
2022/11/12 11:19:00;;;;;;;25.37;11.93;;;;;;;10.95;100.00;103005.44;7393563;19;20385;-52
2022/11/12 11:22:00;;;;;;;20.83;12.47;;;;;;;10.93;100.00;103013.06;7391811;19;20434;-53
2022/11/12 11:24:38;;;;;;;20.07;11.60;;;;;;;10.84;100.00;103009.78;7391101;19;20413;-49
2022/11/12 11:27:14;;;;;;;23.80;12.30;;;;;;;10.97;100.00;103008.16;7392347;19;20389;-49
2022/11/12 11:29:54;;;;;;;20.30;12.17;;;;;;;11.16;100.00;102995.84;7392414;19;20783;-51
2022/11/12 11:32:41;;;;;;;17.97;10.40;;;;;;;11.34;100.00;103003.19;7391690;19;20424;-50
2022/11/12 11:35:22;;;;;;;18.30;10.93;;;;;;;11.34;100.00;103016.09;7393678;19;20389;-51
2022/11/12 11:38:18;;;;;;;20.57;11.30;;;;;;;11.45;100.00;103015.19;7393232;19;20389;-50
2022/11/12 11:40:53;;;;;;;16.27;9.90;;;;;;;11.47;100.00;103018.81;7392407;19;20465;-51
2022/11/12 11:43:42;;;;;;;17.43;9.70;;;;;;;11.54;100.00;103008.91;7392658;19;20411;-50
2022/11/12 11:46:18;;;;;;;25.00;11.00;;;;;;;11.70;100.00;103014.41;7394670;19;20420;-54
2022/11/12 11:48:59;;;;;;;18.00;9.90;;;;;;;11.66;100.00;103015.00;7392385;19;20413;-52
2022/11/12 11:51:39;;;;;;;17.53;10.53;;;;;;;11.78;100.00;103014.97;7390798;19;20809;-57
2022/11/12 11:54:32;;;;;;;20.20;10.00;;;;;;;11.71;100.00;103015.31;7392028;19;20415;-51